createdAt,value
2022-11-18T00:04:36.722Z,6.72
2022-11-18T00:09:39.513Z,6.63
2022-11-18T00:14:43.632Z,6.57
2022-11-18T00:19:46.534Z,6.51
2022-11-18T00:24:49.370Z,6.40
2022-11-18T00:29:53.596Z,6.27
2022-11-18T00:34:56.337Z,6.23
2022-11-18T00:39:59.149Z,6.18
2022-11-18T00:45:04.661Z,6.13
2022-11-18T00:50:08.261Z,6.10
2022-11-18T00:55:11.071Z,6.21
2022-11-18T01:00:15.721Z,6.17
2022-11-18T01:05:18.543Z,6.14
2022-11-18T01:10:21.341Z,6.15
2022-11-18T01:15:25.500Z,6.11
2022-11-18T01:20:28.296Z,6.11
2022-11-18T01:25:31.169Z,6.15
2022-11-18T01:30:36.890Z,6.21
2022-11-18T01:35:41.701Z,6.28
2022-11-18T01:40:44.523Z,6.36
2022-11-18T01:45:50.218Z,6.44
2022-11-18T01:50:56.688Z,6.46
2022-11-18T01:56:04.372Z,6.46
2022-11-18T02:01:08.927Z,6.42
2022-11-18T02:06:12.453Z,6.37
2022-11-18T02:11:31.024Z,6.33
2022-11-18T02:16:47.142Z,6.24
2022-11-18T02:22:00.582Z,6.15
2022-11-18T02:27:42.984Z,6.01
2022-11-18T02:32:55.196Z,6.04
2022-11-18T02:38:01.453Z,6.07
2022-11-18T02:43:08.772Z,6.10
2022-11-18T02:48:15.436Z,6.09
2022-11-18T02:53:21.948Z,6.05
2022-11-18T02:58:26.974Z,6.01
2022-11-18T03:03:33.225Z,6.06
2022-11-18T03:08:40.448Z,6.07
2022-11-18T03:13:54.185Z,6.04
2022-11-18T03:19:06.392Z,6.04
2022-11-18T03:24:16.049Z,6.03
2022-11-18T03:29:22.765Z,6.03
2022-11-18T03:34:31.476Z,6.03
2022-11-18T03:39:38.574Z,6.02
2022-11-18T03:44:49.678Z,5.95
2022-11-18T03:50:02.065Z,5.84
2022-11-18T03:55:12.197Z,5.82
2022-11-18T04:00:17.233Z,5.79
2022-11-18T04:05:21.768Z,5.67
2022-11-18T04:10:30.810Z,5.70
2022-11-18T04:15:33.910Z,5.78
2022-11-18T04:20:38.458Z,5.84
2022-11-18T04:25:41.197Z,5.84
2022-11-18T04:30:45.022Z,6.02
2022-11-18T04:35:49.278Z,6.12
2022-11-18T04:40:52.029Z,6.15
2022-11-18T04:45:54.793Z,6.19
2022-11-18T04:50:59.353Z,6.26
2022-11-18T04:56:06.453Z,6.28
2022-11-18T05:01:09.613Z,6.29
2022-11-18T05:06:13.910Z,6.31
2022-11-18T05:11:34.453Z,6.35
2022-11-18T05:16:37.268Z,6.39
2022-11-18T05:21:41.445Z,6.38
2022-11-18T05:26:44.410Z,6.40
2022-11-18T05:31:47.589Z,6.40
2022-11-18T05:36:51.884Z,6.35
2022-11-18T05:42:12.353Z,6.34
2022-11-18T05:47:15.349Z,6.30
2022-11-18T05:52:19.498Z,6.35
2022-11-18T05:57:22.327Z,6.37
2022-11-18T06:02:25.505Z,6.36
2022-11-18T06:07:36.899Z,6.45
2022-11-18T06:12:44.812Z,6.50
2022-11-18T06:17:53.206Z,6.52
2022-11-18T06:23:00.936Z,6.51
2022-11-18T06:28:04.035Z,6.51
2022-11-18T06:33:06.832Z,6.54
2022-11-18T06:38:10.993Z,6.55
2022-11-18T06:43:31.725Z,6.55
2022-11-18T06:48:34.526Z,6.55
2022-11-18T06:53:38.893Z,6.50
2022-11-18T06:58:42.203Z,6.47
2022-11-18T07:03:46.633Z,6.53
2022-11-18T07:08:51.718Z,6.56
2022-11-18T07:13:54.669Z,6.62
2022-11-18T07:18:57.612Z,6.83
2022-11-18T07:24:01.745Z,6.95
2022-11-18T07:29:04.659Z,7.03
2022-11-18T07:34:07.913Z,7.11
2022-11-18T07:39:12.005Z,7.11
2022-11-18T07:44:15.144Z,7.08
2022-11-18T07:49:18.210Z,7.03
2022-11-18T07:54:22.589Z,6.95
2022-11-18T07:59:25.416Z,6.87
2022-11-18T08:04:28.242Z,6.74
2022-11-18T08:09:32.393Z,6.71
2022-11-18T08:14:35.228Z,6.74
2022-11-18T08:19:38.028Z,6.79
2022-11-18T08:24:42.148Z,6.78
2022-11-18T08:29:45.054Z,6.75
2022-11-18T08:34:47.876Z,6.76
2022-11-18T08:39:51.980Z,6.82
2022-11-18T08:44:54.737Z,6.88
2022-11-18T08:49:57.554Z,6.89
2022-11-18T08:55:02.355Z,6.77
2022-11-18T09:00:06.130Z,6.70
2022-11-18T09:05:09.492Z,6.70
2022-11-18T09:10:13.654Z,6.61
2022-11-18T09:15:17.472Z,6.51
2022-11-18T09:20:20.689Z,6.50
2022-11-18T09:25:24.812Z,6.33
2022-11-18T09:30:27.763Z,6.39
2022-11-18T09:35:30.548Z,6.27
2022-11-18T09:40:39.002Z,6.28
2022-11-18T09:45:50.004Z,6.24
2022-11-18T09:50:56.504Z,6.36
2022-11-18T09:56:15.543Z,6.42
2022-11-18T10:01:21.944Z,6.42
2022-11-18T10:06:27.801Z,6.36
2022-11-18T10:11:41.745Z,6.26
2022-11-18T10:16:58.089Z,6.11
2022-11-18T10:22:23.998Z,6.00
2022-11-18T10:27:36.749Z,5.89
2022-11-18T10:32:54.638Z,5.77
2022-11-18T10:38:08.674Z,5.68
2022-11-18T10:43:13.719Z,5.53
2022-11-18T10:48:20.240Z,5.49
2022-11-18T10:53:32.329Z,5.56
2022-11-18T10:58:42.271Z,5.52
2022-11-18T11:03:57.941Z,5.48
2022-11-18T11:09:04.641Z,5.43
2022-11-18T11:14:17.266Z,5.31
2022-11-18T11:19:24.900Z,5.26
2022-11-18T11:24:28.626Z,5.17
2022-11-18T11:29:57.154Z,5.20
2022-11-18T11:35:08.136Z,5.15
2022-11-18T11:40:25.862Z,5.14
2022-11-18T11:45:39.163Z,5.00
2022-11-18T11:51:05.048Z,4.91
2022-11-18T11:56:28.233Z,4.94
2022-11-18T12:01:39.512Z,4.72
2022-11-18T12:06:45.827Z,4.65
2022-11-18T12:11:53.743Z,4.44
2022-11-18T12:17:07.750Z,4.45
2022-11-18T12:22:10.505Z,4.47
2022-11-18T12:27:15.692Z,4.65
2022-11-18T12:32:36.162Z,4.59
2022-11-18T12:37:43.992Z,4.59
2022-11-18T12:43:05.960Z,4.54
2022-11-18T12:48:41.152Z,4.53
2022-11-18T12:53:46.276Z,4.44
2022-11-18T12:58:51.743Z,4.52
2022-11-18T13:04:08.789Z,4.39
2022-11-18T13:09:17.934Z,4.40
2022-11-18T13:14:42.740Z,4.46
2022-11-18T13:19:57.620Z,4.28
2022-11-18T13:25:00.396Z,4.21
2022-11-18T13:30:06.845Z,4.13
2022-11-18T13:35:16.484Z,4.17
2022-11-18T13:40:22.225Z,4.06
2022-11-18T13:45:29.398Z,4.15
2022-11-18T13:50:38.341Z,4.13
2022-11-18T13:55:47.381Z,4.05
2022-11-18T14:00:54.926Z,4.05
2022-11-18T14:05:59.604Z,3.94
2022-11-18T14:11:03.490Z,3.87
2022-11-18T14:16:31.843Z,3.85
2022-11-18T14:21:38.301Z,3.86
2022-11-18T14:26:41.151Z,3.77
2022-11-18T14:31:43.905Z,3.75
2022-11-18T14:36:48.975Z,3.81
2022-11-18T14:41:51.872Z,3.69
2022-11-18T14:46:58.932Z,3.64
2022-11-18T14:52:04.502Z,3.59
2022-11-18T14:57:07.307Z,3.48
2022-11-18T15:02:15.075Z,3.40
2022-11-18T15:07:23.796Z,3.21
2022-11-18T15:12:27.880Z,3.31
2022-11-18T15:17:30.806Z,3.64
2022-11-18T15:22:35.479Z,3.61
2022-11-18T15:27:38.779Z,3.20
2022-11-18T15:32:41.566Z,2.99
2022-11-18T15:37:45.729Z,2.95
2022-11-18T15:42:52.019Z,2.94
2022-11-18T15:47:55.300Z,2.90
2022-11-18T15:52:59.535Z,2.72
2022-11-18T15:58:02.331Z,2.69
2022-11-18T16:03:05.180Z,2.63
2022-11-18T16:08:09.328Z,2.65
2022-11-18T16:13:12.140Z,2.58
2022-11-18T16:18:16.021Z,2.47
2022-11-18T16:23:20.119Z,2.34
2022-11-18T16:28:22.893Z,2.00
2022-11-18T16:33:25.723Z,1.86
2022-11-18T16:38:29.807Z,1.58
2022-11-18T16:43:32.524Z,1.65
2022-11-18T16:48:35.275Z,1.69
2022-11-18T16:53:39.339Z,1.65
2022-11-18T16:58:42.072Z,1.48
2022-11-18T17:03:44.788Z,1.23
2022-11-18T17:08:49.246Z,1.33
2022-11-18T17:13:57.526Z,1.23
2022-11-18T17:19:03.768Z,1.24
2022-11-18T17:24:17.413Z,1.04
2022-11-18T17:29:21.499Z,1.00
2022-11-18T17:34:24.560Z,1.03
2022-11-18T17:39:31.927Z,0.81
2022-11-18T17:44:34.782Z,0.86
2022-11-18T17:49:37.542Z,0.71
2022-11-18T17:54:41.632Z,0.80
2022-11-18T17:59:44.468Z,0.75
2022-11-18T18:04:47.275Z,0.64
2022-11-18T18:09:51.416Z,0.70
2022-11-18T18:14:54.235Z,0.80
2022-11-18T18:19:57.033Z,0.81
2022-11-18T18:25:01.153Z,0.83
2022-11-18T18:30:04.052Z,0.94
2022-11-18T18:35:07.466Z,0.89
2022-11-18T18:40:13.662Z,0.78
2022-11-18T18:45:34.075Z,0.75
2022-11-18T18:50:36.800Z,0.81
2022-11-18T18:55:44.903Z,0.62
2022-11-18T19:00:48.121Z,0.60
2022-11-18T19:11:29.843Z,0.57
2022-11-18T19:16:33.296Z,0.63
2022-11-18T19:21:36.889Z,0.53
2022-11-18T19:26:41.014Z,0.48
2022-11-18T19:31:43.779Z,0.29
2022-11-18T19:36:46.590Z,0.40
2022-11-18T19:41:50.766Z,0.47
2022-11-18T19:46:53.487Z,0.34
2022-11-18T19:51:56.206Z,0.40
2022-11-18T19:57:00.945Z,0.43
2022-11-18T20:02:03.824Z,0.48
2022-11-18T20:07:06.793Z,0.46
2022-11-18T20:12:11.373Z,0.38
2022-11-18T20:17:14.296Z,0.43
2022-11-18T20:22:17.126Z,0.30
2022-11-18T20:27:21.630Z,0.33
2022-11-18T20:32:24.518Z,0.17
2022-11-18T20:37:28.206Z,0.20
2022-11-18T20:42:52.807Z,0.43
2022-11-18T20:47:56.002Z,0.37
2022-11-18T20:52:58.919Z,0.35
2022-11-18T20:58:03.287Z,0.38
2022-11-18T21:03:06.213Z,0.34
2022-11-18T21:08:10.288Z,0.30
2022-11-18T21:13:31.930Z,0.30
2022-11-18T21:18:35.606Z,0.20
2022-11-18T21:23:38.393Z,0.27
2022-11-18T21:28:42.585Z,0.10
2022-11-18T21:33:45.491Z,0.08
2022-11-18T21:38:48.710Z,0.09
2022-11-18T21:44:08.457Z,0.06
2022-11-18T21:49:11.345Z,0.07
2022-11-18T21:54:15.838Z,-0.09
2022-11-18T21:59:22.366Z,-0.07
2022-11-18T22:04:42.903Z,-0.06
2022-11-18T22:09:45.805Z,-0.18
2022-11-18T22:14:50.155Z,-0.07
2022-11-18T22:19:53.119Z,-0.06
2022-11-18T22:24:55.877Z,-0.04
2022-11-18T22:30:00.059Z,0.07
2022-11-18T22:35:03.059Z,0.06
2022-11-18T22:40:07.246Z,0.01
2022-11-18T22:45:11.492Z,0.15
2022-11-18T22:50:14.283Z,0.17
2022-11-18T22:55:17.133Z,0.07
2022-11-18T23:00:21.567Z,0.09
2022-11-18T23:05:24.782Z,0.03
2022-11-18T23:10:27.562Z,0.10
2022-11-18T23:15:33.885Z,0.15
2022-11-18T23:20:37.114Z,0.07
2022-11-18T23:25:40.051Z,-0.05
2022-11-18T23:30:44.169Z,0.05
2022-11-18T23:35:53.015Z,0.08
2022-11-18T23:40:56.905Z,0.09
2022-11-18T23:46:01.243Z,-0.03
2022-11-18T23:51:05.961Z,-0.03
2022-11-18T23:56:11.189Z,-0.00
